Time;durP1;ratioP1;P1;durP2;ratioP2;P2;SDS_P1;SDS_P2;PMS_P1;PMS_P2;Temp;Humidity;BMP_temperature;BMP_pressure;BME280_temperature;BME280_humidity;BME280_pressure;Samples;Min_cycle;Max_cycle;Signal;HPM_P1;HPM_P2
2022/09/14 00:01:56;;;;;;;;;2.00;1.00;;;;;24.70;51.06;99323.72;4976910;28;45718;-70
2022/09/14 00:04:21;;;;;;;;;1.67;1.00;;;;;24.66;50.27;99314.97;4976570;28;46289;-70
2022/09/14 00:06:48;;;;;;;;;1.67;0.00;;;;;24.66;50.18;99312.31;4974995;28;45441;-70
2022/09/14 00:09:20;;;;;;;;;1.00;0.67;;;;;24.67;50.33;99311.38;4975218;28;45461;-70
2022/09/14 00:11:46;;;;;;;;;0.00;0.00;;;;;24.76;49.69;99321.59;4976723;28;45530;-69
2022/09/14 00:14:12;;;;;;;;;2.00;0.00;;;;;24.78;49.67;99330.41;4975955;28;45474;-69
2022/09/14 00:16:39;;;;;;;;;2.00;0.00;;;;;24.70;49.69;99308.53;4975016;28;45577;-69
2022/09/14 00:19:14;;;;;;;;;1.00;1.00;;;;;24.78;49.80;99309.03;4976622;28;45384;-70
2022/09/14 00:21:41;;;;;;;;;0.33;0.33;;;;;24.74;50.22;99309.28;4974354;28;45517;-70
2022/09/14 00:24:08;;;;;;;;;1.00;1.00;;;;;24.72;50.47;99312.00;4974837;28;45672;-70
2022/09/14 00:26:34;;;;;;;;;1.00;0.00;;;;;24.63;50.38;99307.13;4976372;28;45364;-70
2022/09/14 00:29:03;;;;;;;;;1.00;1.00;;;;;24.60;49.97;99299.25;4976256;28;45511;-70
2022/09/14 00:31:30;;;;;;;;;1.00;0.00;;;;;24.57;50.17;99307.38;4976385;28;45480;-71
2022/09/14 00:33:56;;;;;;;;;1.00;1.00;;;;;24.32;49.89;99254.28;4973212;28;45586;-70
2022/09/14 00:36:25;;;;;;;;;2.00;1.00;;;;;24.54;50.12;99291.53;4976184;28;45488;-70
2022/09/14 00:38:54;;;;;;;;;1.00;1.00;;;;;24.49;50.07;99291.72;4977974;28;45502;-70
2022/09/14 00:41:26;;;;;;;;;1.00;1.00;;;;;24.40;50.38;99279.66;4978298;28;45331;-70
2022/09/14 00:43:58;;;;;;;;;0.67;0.67;;;;;24.41;50.39;99297.44;4976613;28;47987;-70
2022/09/14 00:46:26;;;;;;;;;1.67;1.00;;;;;24.37;50.15;99294.94;4976377;28;45462;-70
2022/09/14 00:48:53;;;;;;;;;1.00;1.00;;;;;24.37;50.61;99292.28;4976788;28;45445;-70
2022/09/14 00:51:20;;;;;;;;;0.33;0.33;;;;;24.25;49.91;99272.38;4978248;28;45457;-70
2022/09/14 00:53:47;;;;;;;;;1.00;1.00;;;;;24.29;49.89;99281.09;4977433;28;46031;-70
2022/09/14 00:56:13;;;;;;;;;1.00;0.00;;;;;24.25;50.11;99272.38;4977451;28;45287;-70
2022/09/14 00:58:39;;;;;;;;;0.67;0.67;;;;;24.20;49.87;99277.06;4976351;28;45238;-70
2022/09/14 01:01:06;;;;;;;;;0.00;0.00;;;;;24.24;50.07;99281.31;4977703;28;45202;-70
2022/09/14 01:03:32;;;;;;;;;0.33;0.33;;;;;24.18;49.77;99279.81;4977469;28;46780;-70
2022/09/14 01:06:28;;;;;;;;;0.00;0.00;;;;;24.13;50.17;99252.50;4978919;28;45587;-70
2022/09/14 01:09:12;;;;;;;;;1.33;0.67;;;;;24.26;49.60;99257.25;4981400;28;45354;-70
2022/09/14 01:12:16;;;;;;;;;0.00;0.00;;;;;24.32;49.78;99262.28;4981190;28;45342;-73
2022/09/14 01:14:55;;;;;;;;;1.00;1.00;;;;;24.28;49.78;99256.22;4980612;28;45458;-70
2022/09/14 01:17:45;;;;;;;;;2.00;0.67;;;;;24.24;50.14;99257.31;4979785;28;45494;-70
2022/09/14 01:20:36;;;;;;;;;0.00;0.00;;;;;24.28;50.40;99266.03;4980982;28;45574;-70
2022/09/14 01:23:25;;;;;;;;;0.67;0.67;;;;;24.28;50.04;99269.56;4980910;28;45474;-70
2022/09/14 01:25:59;;;;;;;;;2.00;1.00;;;;;24.28;50.05;99274.91;4979666;28;45608;-70
2022/09/14 01:28:40;;;;;;;;;0.67;0.00;;;;;24.13;50.57;99259.59;4981022;28;45219;-70
2022/09/14 01:31:17;;;;;;;;;1.33;1.00;;;;;24.22;50.95;99276.06;4980799;28;45395;-70
2022/09/14 01:33:52;;;;;;;;;1.00;0.33;;;;;24.12;50.92;99268.56;4980394;28;45451;-70
2022/09/14 01:36:20;;;;;;;;;0.33;0.33;;;;;24.01;50.77;99261.03;4979222;28;48032;-70
2022/09/14 01:38:52;;;;;;;;;0.67;0.00;;;;;24.15;51.37;99282.63;4980442;28;45444;-70
2022/09/14 01:41:23;;;;;;;;;1.00;1.00;;;;;24.06;51.69;99264.38;4980673;28;45410;-70
2022/09/14 01:43:55;;;;;;;;;1.00;1.00;;;;;23.98;51.25;99256.72;4980623;28;45551;-70
2022/09/14 01:46:28;;;;;;;;;1.00;0.00;;;;;24.07;51.24;99249.22;4980282;28;45411;-70
2022/09/14 01:49:14;;;;;;;;;1.00;0.67;;;;;23.98;51.64;99237.19;4980732;28;45357;-70
2022/09/14 01:51:42;;;;;;;;;1.00;0.67;;;;;24.13;51.06;99262.28;4980477;28;45490;-70
2022/09/14 01:54:38;;;;;;;;;1.00;0.00;;;;;24.07;51.37;99265.22;4979070;28;45663;-70
2022/09/14 01:57:17;;;;;;;;;1.00;0.00;;;;;24.07;51.70;99262.56;4971979;28;46632;-70
2022/09/14 01:59:46;;;;;;;;;1.00;1.00;;;;;24.11;51.35;99269.47;4980055;28;45337;-70
2022/09/14 02:02:14;;;;;;;;;1.33;0.33;;;;;24.15;51.01;99274.63;4978818;28;45496;-69
2022/09/14 02:05:07;;;;;;;;;1.00;1.00;;;;;24.13;50.70;99254.28;4980442;28;45466;-69
2022/09/14 02:07:34;;;;;;;;;2.00;1.00;;;;;24.17;51.05;99263.84;4980002;28;45261;-70
2022/09/14 02:10:00;;;;;;;;;1.67;1.00;;;;;24.02;50.94;99228.97;4979887;28;45381;-70
2022/09/14 02:12:26;;;;;;;;;2.00;1.00;;;;;24.25;51.44;99250.16;4980331;28;45323;-70
2022/09/14 02:14:53;;;;;;;;;2.00;1.67;;;;;24.12;51.35;99221.41;4979855;28;45310;-72
2022/09/14 02:17:20;;;;;;;;;0.00;0.00;;;;;24.18;51.81;99246.94;4979802;28;45368;-70
2022/09/14 02:19:55;;;;;;;;;0.00;0.00;;;;;24.09;51.88;99218.84;4979879;28;45206;-70
2022/09/14 02:22:21;;;;;;;;;1.00;1.00;;;;;23.97;51.62;99198.97;4978547;28;45417;-70
2022/09/14 02:24:48;;;;;;;;;1.33;1.00;;;;;24.10;51.70;99222.41;4980230;28;45218;-70
2022/09/14 02:27:13;;;;;;;;;4.33;1.00;;;;;23.56;51.71;99118.22;4978514;28;47147;-70
2022/09/14 02:29:39;;;;;;;;;1.00;1.00;;;;;24.26;51.65;99233.22;4979693;28;45356;-70
2022/09/14 02:32:22;;;;;;;;;1.00;0.00;;;;;24.26;51.89;99246.56;4980057;28;45447;-70
2022/09/14 02:35:09;;;;;;;;;1.00;1.00;;;;;24.24;51.93;99235.09;4979709;28;45491;-70
2022/09/14 02:37:49;;;;;;;;;1.00;1.00;;;;;24.25;51.89;99245.69;4979372;28;46572;-70
2022/09/14 02:40:37;;;;;;;;;1.00;1.00;;;;;24.26;51.77;99244.75;4979616;28;45543;-70
2022/09/14 02:43:29;;;;;;;;;2.00;2.00;;;;;24.31;51.70;99239.19;4979452;28;45558;-70
2022/09/14 02:46:16;;;;;;;;;2.00;1.67;;;;;24.34;52.34;99253.28;4968910;28;45627;-70
2022/09/14 02:48:59;;;;;;;;;1.33;1.00;;;;;24.24;52.04;99224.44;4978004;28;45856;-70
2022/09/14 02:51:28;;;;;;;;;1.00;1.00;;;;;24.22;52.26;99225.34;4979389;28;45336;-70
2022/09/14 02:54:03;;;;;;;;;1.00;1.00;;;;;24.34;52.28;99233.72;4979294;28;45286;-70
2022/09/14 02:56:30;;;;;;;;;0.00;0.00;;;;;24.26;52.31;99217.22;4978447;28;45456;-70
2022/09/14 02:58:56;;;;;;;;;2.00;1.33;;;;;24.25;52.04;99215.47;4978034;28;45603;-70
2022/09/14 03:01:23;;;;;;;;;1.67;1.33;;;;;24.32;52.13;99227.59;4979186;28;45257;-70
2022/09/14 03:03:48;;;;;;;;;1.67;1.00;;;;;24.22;51.94;99208.50;4979334;28;45310;-70
2022/09/14 03:06:14;;;;;;;;;1.67;1.33;;;;;24.37;51.89;99233.56;4979362;28;45519;-70
2022/09/14 03:08:42;;;;;;;;;2.00;1.00;;;;;24.25;51.97;99235.00;4979131;28;46407;-72
2022/09/14 03:11:07;;;;;;;;;1.00;1.00;;;;;24.21;51.87;99236.97;4979064;28;45175;-71
2022/09/14 03:13:34;;;;;;;;;1.33;1.00;;;;;24.26;52.36;99235.91;4979171;28;45531;-70
2022/09/14 03:16:05;;;;;;;;;2.33;2.00;;;;;24.21;51.96;99228.09;4978266;28;45388;-70
2022/09/14 03:18:30;;;;;;;;;2.00;2.00;;;;;24.25;52.42;99235.00;4979204;28;45766;-72
2022/09/14 03:21:08;;;;;;;;;2.00;1.33;;;;;24.10;52.52;99227.75;4978841;28;45372;-70
2022/09/14 03:23:40;;;;;;;;;1.33;1.00;;;;;24.26;52.47;99244.75;4979162;28;45382;-72
2022/09/14 03:26:11;;;;;;;;;2.00;2.00;;;;;24.28;52.17;99263.38;4979140;28;45436;-70
2022/09/14 03:28:38;;;;;;;;;1.00;1.00;;;;;24.15;52.11;99236.38;4978016;28;45277;-70
2022/09/14 03:31:05;;;;;;;;;2.00;2.00;;;;;24.19;52.05;99253.97;4978780;28;45269;-70
2022/09/14 03:33:30;;;;;;;;;3.00;1.33;;;;;24.17;52.21;99259.41;4979076;28;45347;-70
2022/09/14 03:35:56;;;;;;;;;2.67;2.00;;;;;24.19;52.41;99264.66;4978917;28;45439;-70
2022/09/14 03:38:22;;;;;;;;;2.00;1.33;;;;;24.12;52.38;99261.41;4978731;28;45361;-70
2022/09/14 03:40:47;;;;;;;;;1.33;1.33;;;;;24.13;52.54;99259.59;4978512;28;45591;-70
2022/09/14 03:43:13;;;;;;;;;2.00;2.00;;;;;24.12;52.24;99258.75;4978786;28;45466;-70
2022/09/14 03:45:39;;;;;;;;;3.00;2.00;;;;;24.11;52.38;99254.34;4978760;28;45364;-70
2022/09/14 03:48:06;;;;;;;;;1.00;1.00;;;;;24.02;53.20;99260.13;4978385;28;45439;-71
2022/09/14 03:50:32;;;;;;;;;2.67;1.67;;;;;24.05;53.66;99272.44;4977456;28;45446;-70
2022/09/14 03:52:58;;;;;;;;;1.00;1.00;;;;;23.91;55.62;99278.41;4978503;28;45499;-73
2022/09/14 03:55:24;;;;;;;;;1.00;1.00;;;;;23.75;55.30;99278.19;4977312;28;45492;-70
2022/09/14 03:57:53;;;;;;;;;1.00;1.00;;;;;23.72;55.46;99276.53;4978320;28;46091;-70
2022/09/14 04:00:18;;;;;;;;;2.00;1.00;;;;;23.59;55.90;99273.53;4978343;28;45187;-70
2022/09/14 04:02:45;;;;;;;;;2.00;2.00;;;;;23.57;56.14;99283.38;4978375;28;45409;-70
2022/09/14 04:05:11;;;;;;;;;2.00;2.00;;;;;23.42;55.66;99278.75;4976962;28;45680;-70
2022/09/14 04:07:36;;;;;;;;;1.00;0.33;;;;;23.43;55.78;99289.31;4977932;28;45498;-70
2022/09/14 04:10:04;;;;;;;;;2.00;2.00;;;;;23.40;56.28;99286.78;4978490;28;45283;-70
2022/09/14 04:12:36;;;;;;;;;1.67;1.33;;;;;23.25;56.34;99265.25;4978397;28;45463;-70
2022/09/14 04:15:04;;;;;;;;;3.67;2.00;;;;;23.26;56.59;99272.31;4978492;28;45574;-72
2022/09/14 04:17:29;;;;;;;;;2.00;1.33;;;;;23.29;55.44;99269.53;4977939;28;45416;-70
2022/09/14 04:19:55;;;;;;;;;2.00;2.00;;;;;23.26;55.54;99261.66;4976561;28;45515;-71
2022/09/14 04:22:20;;;;;;;;;2.00;2.00;;;;;23.21;56.15;99256.53;4976540;28;45435;-70
2022/09/14 04:24:46;;;;;;;;;2.00;2.00;;;;;23.25;56.23;99271.47;4978186;28;45464;-71
2022/09/14 04:27:12;;;;;;;;;2.00;1.00;;;;;23.29;55.68;99283.72;4977585;28;46032;-70
2022/09/14 04:29:38;;;;;;;;;3.00;2.00;;;;;23.29;55.78;99278.38;4977670;28;45269;-70
2022/09/14 04:32:03;;;;;;;;;3.00;2.33;;;;;23.20;56.34;99261.00;4978138;28;45527;-70
2022/09/14 04:34:29;;;;;;;;;2.00;2.00;;;;;23.18;57.79;99270.84;4977977;28;46166;-70
2022/09/14 04:36:55;;;;;;;;;1.00;1.00;;;;;23.02;57.41;99259.13;4977656;28;46178;-70
2022/09/14 04:39:21;;;;;;;;;2.00;2.00;;;;;22.96;57.74;99254.88;4977392;28;45486;-70
2022/09/14 04:41:47;;;;;;;;;3.33;2.33;;;;;23.03;58.18;99287.47;4977003;28;45403;-70
2022/09/14 04:44:12;;;;;;;;;2.00;1.67;;;;;22.94;57.65;99259.41;4977963;28;45503;-70
2022/09/14 04:46:40;;;;;;;;;3.00;2.33;;;;;22.97;57.41;99280.56;4977740;28;46096;-70
2022/09/14 04:49:05;;;;;;;;;3.00;3.00;;;;;23.00;56.94;99288.44;4977990;28;45483;-70
2022/09/14 04:51:32;;;;;;;;;3.00;2.00;;;;;23.03;57.15;99291.00;4977752;28;45324;-70
2022/09/14 04:54:00;;;;;;;;;3.00;2.67;;;;;22.98;56.81;99276.13;4977805;28;45296;-70
2022/09/14 04:56:27;;;;;;;;;4.67;2.33;;;;;23.10;56.96;99294.28;4977379;28;45590;-70
2022/09/14 04:58:57;;;;;;;;;2.00;1.33;;;;;23.10;56.82;99286.31;4976036;28;45437;-71
2022/09/14 05:01:29;;;;;;;;;2.00;2.00;;;;;22.95;57.18;99261.13;4977483;28;45445;-70
2022/09/14 05:03:55;;;;;;;;;2.00;1.33;;;;;23.05;56.94;99288.28;4976384;28;45384;-70
2022/09/14 05:06:23;;;;;;;;;4.00;3.33;;;;;23.05;57.51;99285.63;4975753;28;45475;-72
2022/09/14 05:08:50;;;;;;;;;3.00;2.00;;;;;22.94;56.69;99277.16;4977344;28;45459;-71
2022/09/14 05:11:18;;;;;;;;;4.00;3.00;;;;;23.06;57.02;99291.78;4977306;28;45463;-70
2022/09/14 05:13:44;;;;;;;;;2.00;2.00;;;;;23.07;56.91;99294.41;4977739;28;45320;-70
2022/09/14 05:16:16;;;;;;;;;2.00;2.00;;;;;22.93;56.83;99270.13;4976947;28;45496;-70
2022/09/14 05:18:43;;;;;;;;;3.00;3.00;;;;;23.03;56.78;99301.66;4975791;28;45365;-70
2022/09/14 05:21:10;;;;;;;;;2.00;2.00;;;;;23.03;56.43;99298.13;4977393;28;45487;-72
2022/09/14 05:23:36;;;;;;;;;2.00;2.00;;;;;22.89;56.37;99273.84;4977571;28;45460;-71
2022/09/14 05:26:03;;;;;;;;;3.00;2.33;;;;;22.99;57.20;99302.66;4976998;28;46243;-70
2022/09/14 05:28:29;;;;;;;;;3.00;3.00;;;;;22.94;57.54;99299.34;4977033;28;45389;-70
2022/09/14 05:30:55;;;;;;;;;3.00;1.67;;;;;22.81;56.90;99274.13;4977396;28;45423;-71
2022/09/14 05:33:21;;;;;;;;;2.33;2.00;;;;;22.94;56.98;99299.34;4976310;28;45410;-69
2022/09/14 05:35:48;;;;;;;;;2.00;2.00;;;;;22.77;57.23;99265.41;4974821;28;45517;-70
2022/09/14 05:38:14;;;;;;;;;4.00;2.00;;;;;22.88;57.25;99278.31;4973645;28;45525;-69
2022/09/14 05:40:40;;;;;;;;;5.00;3.00;;;;;22.84;57.33;99280.22;4974016;28;45440;-71
2022/09/14 05:43:06;;;;;;;;;3.67;2.00;;;;;22.86;57.38;99279.28;4975745;28;45491;-70
2022/09/14 05:45:32;;;;;;;;;3.00;2.00;;;;;22.86;57.50;99274.84;4974991;28;45475;-69
2022/09/14 05:48:05;;;;;;;;;2.33;2.00;;;;;22.90;57.36;99278.22;4975258;28;45373;-70
2022/09/14 05:50:31;;;;;;;;;2.00;1.00;;;;;22.82;57.32;99266.09;4972926;28;45443;-70
2022/09/14 05:52:57;;;;;;;;;3.00;2.33;;;;;22.92;57.03;99276.34;4976816;28;45528;-72
2022/09/14 05:55:23;;;;;;;;;1.67;1.67;;;;;22.72;56.68;99243.44;4978056;28;46006;-69
2022/09/14 05:57:49;;;;;;;;;3.00;2.67;;;;;22.86;56.90;99266.84;4977337;28;45302;-69
2022/09/14 06:00:16;;;;;;;;;3.00;3.00;;;;;22.98;57.63;99277.00;4978679;28;45483;-71
2022/09/14 06:02:49;;;;;;;;;3.00;3.00;;;;;22.89;57.51;99264.03;4978628;28;45539;-69
2022/09/14 06:05:16;;;;;;;;;2.33;2.33;;;;;23.05;56.44;99274.97;4978194;28;45545;-70
2022/09/14 06:07:42;;;;;;;;;4.33;3.00;;;;;23.04;56.67;99265.25;4978187;28;45415;-69
2022/09/14 06:10:09;;;;;;;;;4.00;3.00;;;;;23.10;55.98;99262.31;4978666;28;45456;-69
2022/09/14 06:12:34;;;;;;;;;4.67;3.00;;;;;23.18;55.67;99270.84;4978385;28;45336;-69
2022/09/14 06:15:00;;;;;;;;;2.00;2.00;;;;;23.25;55.19;99271.47;4976488;28;46567;-69
2022/09/14 06:17:28;;;;;;;;;4.00;4.00;;;;;23.28;54.91;99260.69;4978042;28;45427;-69
2022/09/14 06:19:54;;;;;;;;;2.67;2.00;;;;;23.33;54.75;99277.31;4968754;28;45428;-69
2022/09/14 06:22:20;;;;;;;;;2.67;2.67;;;;;23.34;54.62;99272.88;4977858;28;45467;-69
2022/09/14 06:24:45;;;;;;;;;2.00;2.00;;;;;23.34;54.74;99270.22;4976331;28;45507;-70
2022/09/14 06:27:11;;;;;;;;;2.33;2.33;;;;;23.49;54.03;99292.66;4977604;28;45511;-70
2022/09/14 06:29:36;;;;;;;;;3.00;2.67;;;;;23.59;53.69;99286.84;4978408;28;45471;-70
2022/09/14 06:32:02;;;;;;;;;1.00;1.00;;;;;23.59;53.93;99276.19;4978030;28;45543;-70
2022/09/14 06:34:29;;;;;;;;;2.00;2.00;;;;;23.77;53.61;99292.31;4977519;28;45482;-70
2022/09/14 06:36:55;;;;;;;;;2.67;2.00;;;;;23.88;53.26;99292.75;4976588;28;45540;-70
2022/09/14 06:39:21;;;;;;;;;2.67;2.33;;;;;23.96;53.21;99287.06;4978075;28;45405;-70
2022/09/14 06:41:46;;;;;;;;;4.00;3.00;;;;;24.18;52.58;99300.28;4978572;28;45416;-70
2022/09/14 06:44:11;;;;;;;;;3.00;2.00;;;;;24.21;52.14;99289.47;4978507;28;45562;-72
2022/09/14 06:46:37;;;;;;;;;2.33;2.33;;;;;24.21;52.20;99281.47;4976562;28;45444;-71
2022/09/14 06:49:07;;;;;;;;;2.00;2.00;;;;;24.25;51.78;99285.72;4977431;28;45415;-72
2022/09/14 06:51:36;;;;;;;;;2.33;2.33;;;;;24.50;52.01;99295.25;4979059;28;45555;-73
2022/09/14 06:54:02;;;;;;;;;3.00;3.00;;;;;27.18;48.25;99309.75;4974031;28;46088;-72
2022/09/14 06:56:31;;;;;;;;;3.00;2.33;;;;;30.77;40.81;99304.31;4970793;28;45356;-73
2022/09/14 06:58:58;;;;;;;;;2.00;2.00;;;;;33.33;35.22;99295.97;4958917;28;45433;-81
2022/09/14 07:01:25;;;;;;;;;4.67;3.00;;;;;35.29;32.82;99315.69;4960871;28;45539;-73
2022/09/14 07:03:52;;;;;;;;;3.00;3.00;;;;;36.71;30.47;99292.22;4976839;28;46088;-73
2022/09/14 07:06:22;;;;;;;;;5.00;3.00;;;;;38.31;28.08;99321.34;4977777;28;45438;-72
2022/09/14 07:08:50;;;;;;;;;4.00;4.00;;;;;39.48;26.00;99328.75;4978009;28;45411;-73
2022/09/14 07:11:17;;;;;;;;;1.00;0.33;;;;;40.33;25.22;99306.47;4977988;28;45384;-72
2022/09/14 07:13:44;;;;;;;;;1.67;1.67;;;;;41.24;24.83;99328.78;4977612;28;46176;-73
2022/09/14 07:16:10;;;;;;;;;1.00;1.00;;;;;42.11;23.40;99311.94;4978068;28;45548;-76
2022/09/14 07:18:36;;;;;;;;;2.33;1.67;;;;;42.74;23.21;99306.06;4977616;28;45459;-74
2022/09/14 07:21:07;;;;;;;;;2.33;0.67;;;;;43.47;20.82;99317.84;4977904;28;45507;-76
2022/09/14 07:23:37;;;;;;;;;2.67;2.00;;;;;43.81;21.32;99315.41;4977775;28;46452;-72
2022/09/14 07:26:06;;;;;;;;;1.00;1.00;;;;;44.25;19.78;99295.84;4977844;28;45550;-75
2022/09/14 07:28:33;;;;;;;;;2.33;2.00;;;;;44.70;20.03;99309.19;4977507;28;45468;-73
2022/09/14 07:30:59;;;;;;;;;3.00;2.33;;;;;45.28;20.04;99319.78;4977195;28;45538;-74
2022/09/14 07:33:25;;;;;;;;;23.67;19.33;;;;;45.73;18.67;99314.53;4976072;28;45555;-74
2022/09/14 07:35:51;;;;;;;;;1.00;0.67;;;;;45.99;18.52;99313.66;4976824;28;45593;-73
2022/09/14 07:38:17;;;;;;;;;3.33;1.33;;;;;46.52;18.38;99321.03;4976249;28;45787;-74
2022/09/14 07:40:43;;;;;;;;;0.67;0.67;;;;;47.03;17.93;99317.38;4977233;28;45408;-74
2022/09/14 07:43:09;;;;;;;;;2.00;1.67;;;;;47.37;17.87;99325.47;4977122;28;46151;-74
2022/09/14 07:45:35;;;;;;;;;2.00;1.00;;;;;47.45;16.99;99325.19;4977166;28;45495;-74
2022/09/14 07:48:01;;;;;;;;;1.67;1.67;;;;;47.40;17.04;99322.28;4977258;28;46145;-75
2022/09/14 07:50:26;;;;;;;;;2.33;1.33;;;;;47.46;17.72;99321.38;4975751;28;45674;-73
2022/09/14 07:52:52;;;;;;;;;0.67;0.67;;;;;47.76;16.60;99327.09;4977441;28;46339;-73
2022/09/14 07:55:17;;;;;;;;;3.00;1.67;;;;;47.90;15.92;99321.44;4975475;28;45355;-73
2022/09/14 07:57:45;;;;;;;;;1.00;1.00;;;;;48.12;16.17;99324.66;4977675;28;45487;-73
2022/09/14 08:00:11;;;;;;;;;2.33;1.67;;;;;48.09;16.17;99330.66;4977479;28;45464;-73
2022/09/14 08:02:36;;;;;;;;;1.33;0.67;;;;;48.55;15.77;99329.28;4974554;28;46177;-73
2022/09/14 08:05:02;;;;;;;;;0.67;0.67;;;;;48.68;15.23;99344.94;4975094;28;45429;-78
2022/09/14 08:07:28;;;;;;;;;2.00;1.33;;;;;49.16;15.65;99336.59;4976612;28;45311;-73
2022/09/14 08:09:53;;;;;;;;;0.67;0.67;;;;;49.40;15.40;99341.41;4977803;28;45325;-74
2022/09/14 08:12:19;;;;;;;;;1.00;0.33;;;;;49.52;14.43;99354.22;4971687;28;45400;-73
2022/09/14 08:14:44;;;;;;;;;0.67;0.67;;;;;49.43;14.81;99308.50;4965598;28;45424;-74
2022/09/14 08:17:10;;;;;;;;;0.67;0.67;;;;;49.81;15.05;99365.53;4966946;28;45369;-73
2022/09/14 08:19:36;;;;;;;;;1.00;0.67;;;;;50.08;14.78;99353.94;4967877;28;45595;-73
2022/09/14 08:22:03;;;;;;;;;2.00;1.67;;;;;50.38;14.32;99370.47;4964574;28;46496;-73
2022/09/14 08:24:29;;;;;;;;;0.67;0.33;;;;;50.35;13.48;99374.59;4965894;28;45917;-74
2022/09/14 08:26:55;;;;;;;;;0.67;0.67;;;;;50.04;14.58;99366.63;4969636;28;45491;-73
2022/09/14 08:29:20;;;;;;;;;1.67;1.00;;;;;49.63;14.68;99365.59;4967425;28;45657;-73
2022/09/14 08:31:47;;;;;;;;;1.00;1.00;;;;;48.96;14.75;99364.59;4965554;28;46538;-73
2022/09/14 08:34:15;;;;;;;;;3.00;3.00;;;;;48.71;15.42;99373.06;4967612;28;45581;-77
2022/09/14 08:36:42;;;;;;;;;0.33;0.33;;;;;48.36;15.17;99372.78;4977657;28;45509;-76
2022/09/14 08:39:09;;;;;;;;;0.00;0.00;;;;;48.08;15.53;99378.81;4977362;28;45325;-76
2022/09/14 08:41:47;;;;;;;;;0.67;0.67;;;;;47.83;15.93;99379.63;4976180;28;45444;-77
2022/09/14 08:44:30;;;;;;;;;1.00;0.33;;;;;47.19;16.00;99360.25;4975498;28;45449;-75
2022/09/14 08:47:03;;;;;;;;;0.00;0.00;;;;;46.71;15.78;99374.47;4976858;28;45321;-77
2022/09/14 08:49:31;;;;;;;;;1.00;1.00;;;;;46.14;17.13;99371.44;4977288;28;45369;-73
2022/09/14 08:51:57;;;;;;;;;1.00;1.00;;;;;45.74;17.57;99357.59;4971027;28;46235;-73
2022/09/14 08:54:23;;;;;;;;;0.67;0.67;;;;;45.49;17.30;99357.38;4957279;28;45414;-73
2022/09/14 08:57:02;;;;;;;;;2.00;1.00;;;;;45.04;18.34;99362.53;4956606;28;45456;-74
2022/09/14 09:00:01;;;;;;;;;0.67;0.67;;;;;44.76;18.60;99341.44;4954658;28;45353;-71
2022/09/14 09:02:56;;;;;;;;;0.33;0.33;;;;;44.58;18.04;99364.03;4956902;28;45482;-74
2022/09/14 09:05:52;;;;;;;;;1.67;1.67;;;;;44.71;17.77;99357.75;4971527;28;45545;-76
2022/09/14 09:08:39;;;;;;;;;0.67;0.67;;;;;44.76;18.61;99360.72;4957204;28;46094;-73
2022/09/14 09:11:19;;;;;;;;;0.00;0.00;;;;;44.73;18.18;99347.38;4957244;28;45270;-74
2022/09/14 09:13:49;;;;;;;;;1.67;1.67;;;;;44.48;18.08;99369.91;4956571;28;45512;-74
2022/09/14 09:16:19;;;;;;;;;0.67;0.00;;;;;44.55;17.60;99347.94;4956380;28;45520;-73
2022/09/14 09:18:53;;;;;;;;;0.67;0.67;;;;;45.09;17.97;99360.03;4956971;28;45508;-78
2022/09/14 09:21:24;;;;;;;;;0.67;0.67;;;;;45.63;17.05;99375.63;4965390;28;45588;-74
2022/09/14 09:23:49;;;;;;;;;0.67;0.67;;;;;46.01;17.00;99376.94;4973377;28;45727;-75
2022/09/14 09:26:18;;;;;;;;;2.67;2.00;;;;;46.13;17.12;99391.81;4975012;28;45460;-77
2022/09/14 09:28:48;;;;;;;;;1.00;0.33;;;;;46.69;16.23;99371.09;4976581;28;45441;-77
2022/09/14 09:31:16;;;;;;;;;0.67;0.33;;;;;47.21;16.13;99391.31;4976691;28;45458;-75
2022/09/14 09:33:44;;;;;;;;;0.67;0.67;;;;;47.26;16.51;99373.19;4978034;28;46593;-77
2022/09/14 09:36:13;;;;;;;;;0.67;0.67;;;;;47.58;15.85;99374.09;4977411;28;45709;-76
2022/09/14 09:38:39;;;;;;;;;1.00;0.67;;;;;47.94;15.96;99376.16;4978971;28;45513;-74
2022/09/14 09:41:19;;;;;;;;;0.33;0.33;;;;;48.32;15.38;99377.09;4977271;28;45491;-79
2022/09/14 09:44:09;;;;;;;;;0.00;0.00;;;;;47.92;14.95;99386.59;4976834;28;45533;-80
2022/09/14 09:46:48;;;;;;;;;1.33;0.33;;;;;48.00;15.02;99402.94;4978379;28;45449;-77
2022/09/14 09:49:30;;;;;;;;;0.33;0.00;;;;;48.24;14.81;99394.81;4977166;28;45286;-80
2022/09/14 09:52:09;;;;;;;;;0.67;0.67;;;;;48.14;14.47;99383.44;4977403;28;45714;-80
2022/09/14 09:54:37;;;;;;;;;0.67;0.67;;;;;47.85;14.07;99379.41;4976980;28;46106;-81
2022/09/14 09:57:26;;;;;;;;;1.00;0.33;;;;;47.60;14.63;99394.09;4976002;28;45629;-75
2022/09/14 10:00:18;;;;;;;;;2.00;0.67;;;;;47.52;14.84;99392.41;4978233;28;45412;-75
2022/09/14 10:02:44;;;;;;;;;0.00;0.00;;;;;47.63;15.15;99378.94;4977565;28;45655;-76
2022/09/14 10:05:09;;;;;;;;;0.00;0.00;;;;;47.70;14.32;99388.06;4975981;28;47163;-80
2022/09/14 10:07:59;;;;;;;;;0.67;0.67;;;;;47.26;15.04;99365.78;4978044;28;45855;-78
2022/09/14 10:10:34;;;;;;;;;0.67;0.67;;;;;46.87;15.02;99378.69;4978163;28;45440;-79
2022/09/14 10:13:03;;;;;;;;;0.67;0.67;;;;;46.29;15.78;99368.41;4979866;28;45580;-74
2022/09/14 10:15:31;;;;;;;;;2.00;2.00;;;;;46.24;15.20;99391.16;4977149;28;45495;-73
2022/09/14 10:18:07;;;;;;;;;0.67;0.00;;;;;45.63;16.00;99375.63;4979633;28;45218;-74
2022/09/14 10:20:34;;;;;;;;;0.00;0.00;;;;;45.15;14.63;99380.41;4979603;28;45275;-77
2022/09/14 10:23:18;;;;;;;;;3.00;3.00;;;;;44.90;15.27;99388.38;4978971;28;45564;-74
2022/09/14 10:26:09;;;;;;;;;0.00;0.00;;;;;44.34;15.79;99384.63;4978985;28;45351;-77
2022/09/14 10:28:35;;;;;;;;;0.67;0.00;;;;;43.69;15.21;99378.38;4979460;28;45239;-74
2022/09/14 10:31:10;;;;;;;;;0.00;0.00;;;;;43.00;16.42;99393.44;4977775;28;45507;-73
2022/09/14 10:33:36;;;;;;;;;0.67;0.00;;;;;42.32;16.87;99367.97;4979387;28;45484;-73
2022/09/14 10:36:16;;;;;;;;;0.00;0.00;;;;;42.02;17.59;99389.91;4979080;28;45499;-73
2022/09/14 10:38:52;;;;;;;;;0.67;0.00;;;;;41.17;17.97;99399.03;4977604;28;45396;-74
2022/09/14 10:41:59;;;;;;;;;1.00;0.67;;;;;40.09;19.05;99389.44;4977828;28;45338;-73
2022/09/14 10:44:24;;;;;;;;;1.00;1.00;;;;;39.03;19.54;99386.53;4937555;28;45579;-73
2022/09/14 10:47:08;;;;;;;;;0.33;0.33;;;;;38.65;20.35;99383.28;4970036;28;45570;-73
2022/09/14 10:50:02;;;;;;;;;1.33;1.33;;;;;37.97;21.43;99388.44;4979006;28;45348;-73
2022/09/14 10:52:53;;;;;;;;;2.67;1.67;;;;;37.63;22.28;99391.06;4978131;28;45450;-74
2022/09/14 10:55:41;;;;;;;;;0.00;0.00;;;;;37.65;22.21;99389.03;4978882;28;45459;-73
2022/09/14 10:58:32;;;;;;;;;0.67;0.67;;;;;37.26;22.84;99386.56;4978646;28;45645;-73
2022/09/14 11:01:05;;;;;;;;;1.33;1.33;;;;;37.01;22.57;99390.88;4978320;28;45448;-73
2022/09/14 11:03:49;;;;;;;;;4.67;4.67;;;;;36.87;23.34;99397.69;4978704;28;45448;-73
2022/09/14 11:06:23;;;;;;;;;2.00;2.00;;;;;36.62;23.29;99391.03;4977629;28;45495;-73
2022/09/14 11:09:01;;;;;;;;;2.33;2.00;;;;;36.31;23.48;99380.41;4978931;28;45412;-73
2022/09/14 11:11:43;;;;;;;;;0.67;0.67;;;;;36.08;24.00;99388.00;4978490;28;45519;-73
2022/09/14 11:14:26;;;;;;;;;38.75;35.00;;;;;35.92;24.04;99387.75;4976915;28;45512;-74
2022/09/14 11:17:14;;;;;;;;;1.00;1.00;;;;;35.69;24.05;99388.06;4978561;28;45554;-74
2022/09/14 11:20:01;;;;;;;;;2.67;2.67;;;;;35.72;24.16;99384.22;4977182;28;45499;-75
2022/09/14 11:23:05;;;;;;;;;0.67;0.67;;;;;35.52;24.47;99383.31;4978229;28;45400;-74
2022/09/14 11:25:47;;;;;;;;;0.67;0.67;;;;;35.43;24.89;99369.56;4978623;28;45260;-73
2022/09/14 11:28:20;;;;;;;;;0.67;0.67;;;;;35.27;25.24;99390.16;4978847;28;45313;-73
2022/09/14 11:31:01;;;;;;;;;1.00;0.67;;;;;35.32;24.87;99388.75;4978682;28;46451;-73
2022/09/14 11:33:37;;;;;;;;;0.67;0.67;;;;;35.39;25.07;99381.72;4978768;28;45431;-73
2022/09/14 11:36:20;;;;;;;;;0.67;0.67;;;;;35.45;24.46;99397.47;4978748;28;45451;-73
2022/09/14 11:38:56;;;;;;;;;0.67;0.67;;;;;35.35;24.70;99387.59;4979006;28;45226;-73
2022/09/14 11:41:45;;;;;;;;;0.67;0.67;;;;;35.11;25.14;99367.09;4977412;28;45500;-73
2022/09/14 11:44:20;;;;;;;;;0.00;0.00;;;;;35.05;25.18;99384.78;4977955;28;45398;-73
2022/09/14 11:46:56;;;;;;;;;1.33;1.33;;;;;34.80;25.21;99388.03;4976196;28;45451;-74
2022/09/14 11:49:38;;;;;;;;;0.00;0.00;;;;;34.53;24.76;99373.16;4978338;28;45426;-74
2022/09/14 11:52:15;;;;;;;;;0.67;0.67;;;;;34.51;24.83;99385.16;4977944;28;46533;-73
2022/09/14 11:54:41;;;;;;;;;0.67;0.67;;;;;34.41;25.07;99393.25;4977990;28;45228;-73